Keyes, California
Current Conditions -  °F | °C
As of 9:07 AM on Friday 24 Oct 2014 (Local Time) from KMOD Reporting Station
Scattered Clouds Scattered Clouds  
Wind Chill: 53°   Ceiling: Unl
Heat Index: 53°   Visibility: 8mi
Dew Point: 50°   Wind: 3mph
Humidity: 89%   Direction: 110°ESE
Pressure: 29.99"   Gusts: NA
Location:  37.56°N, 120.92°W
Report Text: KMOD 241607Z 11003KT 8SM SCT003 12/10 A2999 RMK AO2 T01170100 $
Loading
Personal Weather Stations






























Interactive Weather Map
Tropical Storm Tracking
New forecast layout! Learn more

10-Day Weather Forecast

Advertisements
Track Severe Weather on mobile